Time;durP1;ratioP1;P1;durP2;ratioP2;P2;SDS_P1;SDS_P2;PMS_P1;PMS_P2;Temp;Humidity;BMP_temperature;BMP_pressure;BME280_temperature;BME280_humidity;BME280_pressure;Samples;Min_cycle;Max_cycle;Signal;HPM_P1;HPM_P2
2022/08/29 00:00:20;;;;;;;2.85;1.30;;;16.30;8.70;;;;;;5126880;27;34063;-76
2022/08/29 00:02:52;;;;;;;2.33;1.20;;;16.20;8.90;;;;;;5091362;27;34285;-76
2022/08/29 00:05:21;;;;;;;1.10;1.00;;;16.20;9.90;;;;;;5127113;27;34071;-76
2022/08/29 00:07:47;;;;;;;1.58;1.13;;;16.20;9.10;;;;;;5108121;27;35726;-76
2022/08/29 00:10:15;;;;;;;2.30;1.33;;;16.10;9.20;;;;;;5126727;27;33978;-76
2022/08/29 00:12:41;;;;;;;1.65;1.15;;;16.00;9.50;;;;;;5108189;27;34086;-76
2022/08/29 00:15:09;;;;;;;3.17;1.20;;;16.00;9.30;;;;;;5108693;27;34567;-76
2022/08/29 00:17:35;;;;;;;1.80;1.15;;;16.00;9.30;;;;;;5126255;27;34407;-75
2022/08/29 00:20:02;;;;;;;1.52;1.33;;;15.90;9.40;;;;;;5108239;27;34220;-76
2022/08/29 00:22:28;;;;;;;4.43;1.42;;;15.90;9.10;;;;;;5108379;27;34231;-77
2022/08/29 00:24:54;;;;;;;3.78;1.17;;;15.80;9.40;;;;;;5108449;27;34112;-76
2022/08/29 00:27:20;;;;;;;2.72;1.23;;;15.80;9.50;;;;;;5107812;27;35759;-76
2022/08/29 00:29:46;;;;;;;3.08;1.10;;;15.70;9.70;;;;;;5108163;27;34126;-76
2022/08/29 00:32:12;;;;;;;5.43;1.30;;;15.60;9.70;;;;;;5107751;27;34155;-76
2022/08/29 00:34:38;;;;;;;4.40;1.27;;;15.60;9.80;;;;;;5126676;27;34117;-77
2022/08/29 00:37:04;;;;;;;1.67;1.20;;;15.50;9.90;;;;;;5107643;27;35890;-76
2022/08/29 00:39:30;;;;;;;4.10;1.25;;;15.50;9.90;;;;;;5107903;27;34188;-76
2022/08/29 00:41:56;;;;;;;2.72;1.17;;;15.50;9.80;;;;;;5107952;27;34227;-76
2022/08/29 00:44:21;;;;;;;1.95;1.13;;;15.50;10.50;;;;;;5125953;27;34577;-76
2022/08/29 00:46:52;;;;;;;2.45;1.30;;;15.40;10.00;;;;;;5107764;27;36703;-76
2022/08/29 00:49:29;;;;;;;1.98;1.30;;;15.40;10.40;;;;;;5107815;27;34208;-76
2022/08/29 00:51:57;;;;;;;2.63;1.08;;;15.30;11.20;;;;;;5126140;27;34040;-77
2022/08/29 00:54:24;;;;;;;3.78;1.38;;;15.30;10.40;;;;;;5090789;27;34080;-76
2022/08/29 00:56:51;;;;;;;2.35;1.15;;;15.30;10.20;;;;;;5107473;27;36458;-77
2022/08/29 00:59:22;;;;;;;1.35;1.02;;;15.30;10.50;;;;;;5107244;27;34173;-77
2022/08/29 01:01:48;;;;;;;4.00;1.25;;;15.30;10.90;;;;;;5107903;27;34012;-76
2022/08/29 01:04:14;;;;;;;2.88;1.08;;;15.30;10.40;;;;;;5107055;27;34084;-76
2022/08/29 01:06:41;;;;;;;2.95;1.35;;;15.20;10.60;;;;;;5125574;27;34312;-75
2022/08/29 01:09:08;;;;;;;5.45;1.52;;;15.20;10.60;;;;;;5107162;27;34141;-75
2022/08/29 01:14:19;;;;;;;2.58;1.27;;;15.10;10.70;;;;;;5109570;27;34679;-77
2022/08/29 01:16:47;;;;;;;2.88;1.23;;;15.00;10.60;;;;;;5090145;27;35916;-76
2022/08/29 01:19:29;;;;;;;3.40;1.38;;;14.90;11.00;;;;;;5125789;27;34037;-76
2022/08/29 01:22:06;;;;;;;1.10;1.00;;;14.90;11.60;;;;;;5107311;27;34123;-76
2022/08/29 01:24:40;;;;;;;3.60;1.50;;;14.80;11.40;;;;;;5107076;27;33982;-76
2022/08/29 01:27:08;;;;;;;3.00;1.30;;;14.80;11.90;;;;;;5106806;27;35881;-76
2022/08/29 01:29:34;;;;;;;5.95;1.25;;;14.80;11.10;;;;;;5107260;27;34123;-76
2022/08/29 01:32:01;;;;;;;3.83;1.40;;;14.70;11.10;;;;;;5107066;27;34123;-76
2022/08/29 01:34:28;;;;;;;2.58;1.33;;;14.70;11.20;;;;;;5125104;27;34254;-76
2022/08/29 01:36:57;;;;;;;2.10;1.20;;;14.70;11.30;;;;;;5125414;27;34203;-76
2022/08/29 01:39:27;;;;;;;1.70;1.20;;;14.60;11.20;;;;;;5107166;27;34135;-76
2022/08/29 01:41:55;;;;;;;2.38;1.35;;;14.60;11.40;;;;;;5125666;27;34279;-76
2022/08/29 01:44:24;;;;;;;3.83;1.20;;;14.60;11.30;;;;;;5125111;27;34211;-75
2022/08/29 01:46:53;;;;;;;3.95;1.40;;;14.50;11.50;;;;;;5107345;27;34338;-75
2022/08/29 01:49:20;;;;;;;9.00;1.45;;;14.50;11.70;;;;;;5125097;27;34497;-75
2022/08/29 01:51:47;;;;;;;8.70;1.55;;;14.30;11.70;;;;;;5125077;27;34269;-76
2022/08/29 01:54:13;;;;;;;2.85;1.38;;;14.30;11.80;;;;;;5106671;27;34214;-76
2022/08/29 01:56:44;;;;;;;1.58;1.00;;;14.20;11.60;;;;;;5106591;27;35885;-75
2022/08/29 01:59:13;;;;;;;1.40;1.20;;;14.20;12.70;;;;;;5106562;27;34267;-76
2022/08/29 02:01:45;;;;;;;4.88;1.10;;;14.20;12.00;;;;;;5106864;27;34102;-76
2022/08/29 02:04:11;;;;;;;1.38;1.00;;;14.20;12.10;;;;;;5090283;27;34147;-76
2022/08/29 02:06:37;;;;;;;2.28;1.20;;;14.20;12.10;;;;;;5106149;27;35826;-76
2022/08/29 02:09:05;;;;;;;2.60;1.13;;;14.20;11.80;;;;;;5125103;27;34092;-76
2022/08/29 02:11:31;;;;;;;2.33;1.00;;;14.20;11.90;;;;;;5124738;27;34053;-76
2022/08/29 02:13:58;;;;;;;2.00;1.25;;;14.10;11.90;;;;;;5106407;27;34389;-75
2022/08/29 02:16:26;;;;;;;1.17;1.08;;;14.10;12.00;;;;;;5105013;27;36579;-75
2022/08/29 02:18:53;;;;;;;4.63;1.20;;;14.00;12.10;;;;;;5106133;27;34099;-75
2022/08/29 02:21:22;;;;;;;1.33;1.00;;;14.00;12.00;;;;;;5106300;27;34074;-75
2022/08/29 02:23:49;;;;;;;1.40;1.20;;;14.00;12.20;;;;;;5106161;27;34672;-76
2022/08/29 02:26:17;;;;;;;1.63;1.00;;;13.90;12.30;;;;;;5124410;27;34943;-76
2022/08/29 02:28:44;;;;;;;1.83;1.27;;;13.90;12.30;;;;;;5124527;27;34166;-76
2022/08/29 02:31:10;;;;;;;1.50;1.25;;;13.90;12.20;;;;;;5106188;27;34162;-76
2022/08/29 02:33:36;;;;;;;3.58;1.55;;;13.90;12.40;;;;;;5106312;27;34086;-76
2022/08/29 02:36:04;;;;;;;2.08;1.10;;;13.90;12.30;;;;;;5105884;27;36583;-76
2022/08/29 02:38:30;;;;;;;1.20;1.08;;;13.90;12.40;;;;;;5106008;27;34234;-76
2022/08/29 02:40:56;;;;;;;3.20;1.30;;;13.90;12.30;;;;;;5106082;27;34356;-76
2022/08/29 02:43:23;;;;;;;1.35;1.08;;;13.80;12.20;;;;;;5124187;27;34147;-77
2022/08/29 02:45:49;;;;;;;1.75;1.20;;;13.80;12.20;;;;;;5105864;27;35602;-77
2022/08/29 02:48:16;;;;;;;2.80;1.25;;;13.80;12.30;;;;;;5105993;27;34248;-76
2022/08/29 02:50:46;;;;;;;3.35;1.30;;;13.80;12.30;;;;;;5105764;27;34183;-75
2022/08/29 02:53:13;;;;;;;1.60;1.30;;;13.80;12.40;;;;;;5085941;27;34494;-75
2022/08/29 02:55:39;;;;;;;3.92;1.05;;;13.80;12.40;;;;;;5085488;28;35965;-75
2022/08/29 02:58:06;;;;;;;2.78;1.30;;;13.80;12.50;;;;;;5085468;28;34111;-75
2022/08/29 03:00:33;;;;;;;3.08;1.15;;;13.80;12.10;;;;;;5085310;28;34139;-76
2022/08/29 03:02:59;;;;;;;2.38;1.23;;;13.80;12.40;;;;;;5086170;28;34247;-76
2022/08/29 03:05:28;;;;;;;2.03;1.30;;;13.80;12.50;;;;;;5085125;28;36070;-76
2022/08/29 03:07:56;;;;;;;3.88;1.10;;;13.70;12.70;;;;;;5103667;28;33994;-76
2022/08/29 03:10:23;;;;;;;3.05;1.30;;;13.70;12.60;;;;;;5103164;28;34219;-76
2022/08/29 03:12:50;;;;;;;1.05;0.95;;;13.70;12.50;;;;;;5103656;28;34538;-76
2022/08/29 03:15:17;;;;;;;2.30;0.90;;;13.70;12.40;;;;;;5084934;28;36733;-76
2022/08/29 03:17:44;;;;;;;1.25;0.95;;;13.60;12.50;;;;;;5068228;28;34200;-76
2022/08/29 03:20:12;;;;;;;3.22;1.17;;;13.60;12.50;;;;;;5085199;28;34188;-76
2022/08/29 03:22:38;;;;;;;2.88;1.13;;;13.60;13.20;;;;;;5103676;28;34290;-76
2022/08/29 03:25:06;;;;;;;1.83;1.30;;;13.60;12.70;;;;;;5068341;28;35585;-75
2022/08/29 03:27:33;;;;;;;1.25;1.00;;;13.60;12.90;;;;;;5085413;28;34080;-75
2022/08/29 03:30:00;;;;;;;4.85;1.40;;;13.60;12.60;;;;;;5106779;28;34056;-76
2022/08/29 03:32:27;;;;;;;1.42;1.33;;;13.50;12.90;;;;;;5106775;28;34333;-75
2022/08/29 03:34:53;;;;;;;1.55;1.08;;;13.60;12.60;;;;;;5106347;28;34320;-76
2022/08/29 03:37:19;;;;;;;3.88;1.02;;;13.50;12.70;;;;;;5088522;28;34464;-76
2022/08/29 03:39:45;;;;;;;3.15;1.30;;;13.50;12.60;;;;;;5088416;28;34230;-76
2022/08/29 03:42:12;;;;;;;2.40;1.50;;;13.50;12.60;;;;;;5088157;28;34389;-76
2022/08/29 03:44:39;;;;;;;4.00;1.55;;;13.40;12.60;;;;;;5088030;28;36773;-75
2022/08/29 03:47:06;;;;;;;1.70;1.13;;;13.40;12.80;;;;;;5067999;28;34173;-76
2022/08/29 03:49:33;;;;;;;4.13;1.25;;;13.40;12.90;;;;;;5106184;28;34438;-76
2022/08/29 03:51:59;;;;;;;1.25;1.15;;;13.20;12.80;;;;;;5088657;28;34053;-75
2022/08/29 03:54:26;;;;;;;3.78;1.02;;;13.20;12.90;;;;;;5100383;27;35844;-75
2022/08/29 03:56:53;;;;;;;2.10;1.05;;;13.10;13.00;;;;;;5108502;27;34422;-75
2022/08/29 03:59:19;;;;;;;2.85;1.48;;;13.00;13.10;;;;;;5127064;27;34109;-75
2022/08/29 04:01:46;;;;;;;1.40;1.10;;;13.00;13.00;;;;;;5108731;27;34045;-76
2022/08/29 04:05:05;;;;;;;3.10;1.27;;;12.90;13.20;;;;;;5107934;27;36047;-75
2022/08/29 04:07:00;;;;;;;2.83;1.15;;;12.90;13.30;;;;;;5111613;27;34304;-76
2022/08/29 04:09:27;;;;;;;2.60;1.10;;;12.90;13.30;;;;;;5108164;27;34522;-75
2022/08/29 04:11:54;;;;;;;4.55;1.23;;;12.90;13.20;;;;;;5108565;27;34125;-75
2022/08/29 04:14:20;;;;;;;2.05;1.15;;;12.90;13.40;;;;;;5108110;27;36034;-75
2022/08/29 04:16:49;;;;;;;2.53;1.50;;;12.90;13.60;;;;;;5108327;27;34059;-75
2022/08/29 04:19:19;;;;;;;3.55;1.25;;;12.90;13.70;;;;;;5126419;27;34242;-75
2022/08/29 04:21:47;;;;;;;4.22;1.20;;;12.90;14.10;;;;;;5091518;27;34105;-75
2022/08/29 04:24:15;;;;;;;1.20;1.10;;;12.90;13.70;;;;;;5090774;27;35607;-75
2022/08/29 04:26:41;;;;;;;1.48;1.13;;;12.90;13.80;;;;;;5108197;27;34391;-75
2022/08/29 04:29:09;;;;;;;1.63;1.30;;;12.90;13.80;;;;;;5108129;27;34213;-76
2022/08/29 04:31:36;;;;;;;2.97;1.20;;;13.00;13.80;;;;;;5091319;27;34136;-76
2022/08/29 04:34:04;;;;;;;2.47;1.20;;;13.10;13.80;;;;;;5107655;27;36579;-75
2022/08/29 04:36:32;;;;;;;2.45;1.42;;;13.10;13.80;;;;;;5126407;27;34149;-76
2022/08/29 04:38:58;;;;;;;2.63;1.15;;;13.20;13.80;;;;;;5106762;27;34660;-75
2022/08/29 04:41:24;;;;;;;4.82;1.40;;;13.20;13.70;;;;;;5107843;27;34017;-76
2022/08/29 04:43:50;;;;;;;1.70;1.17;;;13.30;13.70;;;;;;5108205;27;34316;-75
2022/08/29 04:46:17;;;;;;;2.97;1.50;;;13.30;13.50;;;;;;5090639;27;34156;-75
2022/08/29 04:48:43;;;;;;;2.58;1.45;;;13.30;13.50;;;;;;5107894;27;34209;-76
2022/08/29 04:51:09;;;;;;;3.58;1.45;;;13.40;13.40;;;;;;5126298;27;34363;-75
2022/08/29 04:53:36;;;;;;;3.45;1.52;;;13.40;13.70;;;;;;5125695;27;34411;-75
2022/08/29 04:56:06;;;;;;;3.45;1.80;;;13.50;13.60;;;;;;5090683;27;34212;-76
2022/08/29 04:58:35;;;;;;;2.30;1.48;;;13.50;13.70;;;;;;5107436;27;34138;-75
2022/08/29 05:01:02;;;;;;;1.58;1.40;;;13.60;13.70;;;;;;5090596;27;34464;-76
2022/08/29 05:03:29;;;;;;;2.40;1.30;;;13.60;13.50;;;;;;5106750;27;36566;-76
2022/08/29 05:06:00;;;;;;;3.58;1.77;;;13.70;13.70;;;;;;5107616;27;34091;-76
2022/08/29 05:08:28;;;;;;;6.38;1.70;;;13.70;13.70;;;;;;5090258;27;34184;-75
2022/08/29 05:10:54;;;;;;;4.70;1.67;;;13.80;13.40;;;;;;5090815;27;34098;-75
2022/08/29 05:13:21;;;;;;;3.63;1.75;;;13.90;13.30;;;;;;5107391;27;35359;-75
2022/08/29 05:15:47;;;;;;;4.25;1.40;;;13.90;13.40;;;;;;5090386;27;34216;-75
2022/08/29 05:18:16;;;;;;;4.32;1.90;;;14.00;13.60;;;;;;5125716;27;34265;-75
2022/08/29 05:20:45;;;;;;;20.60;2.08;;;14.10;13.40;;;;;;5089683;27;34599;-75
2022/08/29 05:23:13;;;;;;;9.00;1.45;;;14.20;13.50;;;;;;5124975;27;34325;-75
2022/08/29 05:25:44;;;;;;;5.78;1.30;;;14.30;13.30;;;;;;5125621;27;34314;-75
2022/08/29 05:28:12;;;;;;;6.22;1.40;;;14.50;13.40;;;;;;5107087;27;34205;-76
2022/08/29 05:30:38;;;;;;;6.63;1.42;;;14.60;13.40;;;;;;5107189;27;34451;-75
2022/08/29 05:33:06;;;;;;;2.67;1.40;;;14.70;13.20;;;;;;5107045;27;35495;-76
2022/08/29 05:35:33;;;;;;;6.50;1.77;;;14.80;13.00;;;;;;5106876;27;34152;-76
2022/08/29 05:38:01;;;;;;;1.73;1.40;;;14.90;13.10;;;;;;5106959;27;34166;-76
2022/08/29 05:40:27;;;;;;;1.67;1.20;;;15.00;12.80;;;;;;5106717;27;34183;-76
2022/08/29 05:42:53;;;;;;;3.45;1.63;;;15.10;12.70;;;;;;5106580;27;35862;-75
2022/08/29 05:45:19;;;;;;;1.38;1.23;;;15.20;13.00;;;;;;5106939;27;34497;-76
2022/08/29 05:47:45;;;;;;;4.47;1.52;;;15.30;13.10;;;;;;5106902;27;34392;-76
2022/08/29 05:50:12;;;;;;;2.22;1.33;;;15.40;13.00;;;;;;5089698;27;34576;-75
2022/08/29 05:52:40;;;;;;;4.18;1.20;;;15.50;13.10;;;;;;5106195;27;35636;-76
2022/08/29 05:55:06;;;;;;;7.45;1.40;;;15.50;13.20;;;;;;5106340;27;34456;-76
2022/08/29 05:57:32;;;;;;;7.25;1.98;;;15.50;12.90;;;;;;5106756;27;34301;-76
2022/08/29 05:59:58;;;;;;;3.78;1.50;;;15.70;13.00;;;;;;5106916;27;34225;-76
2022/08/29 06:02:24;;;;;;;2.17;1.40;;;15.70;12.80;;;;;;5124761;27;34283;-76
2022/08/29 06:04:51;;;;;;;3.17;1.42;;;15.80;12.90;;;;;;5124933;27;34260;-76
2022/08/29 06:07:18;;;;;;;3.50;1.33;;;15.90;13.00;;;;;;5106141;27;34254;-76
2022/08/29 06:09:44;;;;;;;2.30;1.27;;;16.00;12.90;;;;;;5124916;27;34129;-76
2022/08/29 06:12:13;;;;;;;2.20;1.20;;;16.20;12.90;;;;;;5124476;27;34146;-76
2022/08/29 06:14:40;;;;;;;5.07;1.38;;;16.30;12.90;;;;;;5089669;27;34395;-75
2022/08/29 06:17:07;;;;;;;3.35;1.20;;;16.50;12.60;;;;;;5106603;27;34154;-76
2022/08/29 06:19:34;;;;;;;4.32;1.30;;;16.60;12.30;;;;;;5124584;27;34356;-76
2022/08/29 06:22:02;;;;;;;3.92;0.90;;;16.80;12.20;;;;;;5124818;27;35252;-77
2022/08/29 06:24:29;;;;;;;2.88;1.02;;;16.90;11.90;;;;;;5124251;27;34122;-75
2022/08/29 06:26:56;;;;;;;2.85;1.10;;;17.00;11.70;;;;;;5124673;27;34184;-76
2022/08/29 06:29:22;;;;;;;3.50;1.23;;;17.10;11.70;;;;;;5089012;27;34104;-76
2022/08/29 06:31:48;;;;;;;2.53;1.00;;;17.30;11.40;;;;;;5105620;27;36402;-77
2022/08/29 06:34:14;;;;;;;5.72;1.50;;;17.40;11.30;;;;;;5089197;27;34084;-76
2022/08/29 06:36:40;;;;;;;2.13;1.10;;;17.50;10.90;;;;;;5106853;27;34086;-78
2022/08/29 06:39:08;;;;;;;2.38;1.10;;;17.70;10.80;;;;;;5106081;27;34174;-76
2022/08/29 06:41:36;;;;;;;5.43;1.40;;;17.90;10.60;;;;;;5089521;27;36106;-76
2022/08/29 06:44:03;;;;;;;4.20;1.17;;;18.20;10.20;;;;;;5124513;27;34283;-76
2022/08/29 06:46:34;;;;;;;2.85;1.10;;;18.30;9.70;;;;;;5106107;27;34321;-76
2022/08/29 06:49:02;;;;;;;2.55;1.17;;;18.50;9.50;;;;;;5106148;27;34289;-76
2022/08/29 06:51:31;;;;;;;3.92;1.20;;;18.70;9.30;;;;;;5105091;27;35719;-76
2022/08/29 06:53:59;;;;;;;2.47;1.23;;;18.70;9.00;;;;;;5106818;27;34189;-76
2022/08/29 06:56:25;;;;;;;3.22;1.35;;;19.00;8.90;;;;;;5124422;27;34605;-76
2022/08/29 06:58:52;;;;;;;2.60;1.20;;;19.10;8.70;;;;;;5106256;27;34410;-78
2022/08/29 07:01:20;;;;;;;3.25;1.15;;;19.30;8.60;;;;;;5089003;27;35622;-78
2022/08/29 07:03:46;;;;;;;3.75;1.20;;;19.40;8.10;;;;;;5095422;27;34041;-78
2022/08/29 07:06:13;;;;;;;5.38;1.38;;;19.50;8.10;;;;;;5092087;27;34400;-76
2022/08/29 07:08:39;;;;;;;2.10;1.35;;;19.70;7.70;;;;;;5127882;27;34263;-76
2022/08/29 07:11:05;;;;;;;3.95;1.45;;;19.90;7.50;;;;;;5109755;27;35666;-77
2022/08/29 07:13:33;;;;;;;1.52;1.00;;;20.10;7.10;;;;;;5128406;27;34149;-78
2022/08/29 07:16:00;;;;;;;2.90;1.33;;;20.30;6.90;;;;;;5109767;27;35039;-79
2022/08/29 07:18:26;;;;;;;1.83;1.13;;;20.50;6.50;;;;;;5109578;27;34553;-76
2022/08/29 07:20:53;;;;;;;1.05;0.90;;;20.70;6.40;;;;;;5109259;27;35739;-77
2022/08/29 07:23:20;;;;;;;2.80;1.13;;;20.80;6.00;;;;;;5127902;27;34854;-78
2022/08/29 07:25:47;;;;;;;1.17;0.90;;;21.10;5.70;;;;;;5109671;27;34293;-77
2022/08/29 07:28:13;;;;;;;1.20;0.95;;;21.40;5.40;;;;;;5127473;27;33806;-77
2022/08/29 07:30:39;;;;;;;3.67;1.05;;;21.60;5.10;;;;;;5092174;27;36330;-78
2022/08/29 07:33:05;;;;;;;4.20;1.30;;;21.90;4.70;;;;;;5091745;27;34322;-76
2022/08/29 07:35:32;;;;;;;3.92;1.30;;;22.00;4.30;;;;;;5106103;27;34114;-77
2022/08/29 07:38:00;;;;;;;3.08;1.20;;;22.00;4.00;;;;;;5081832;27;34084;-76
2022/08/29 07:40:26;;;;;;;3.10;1.10;;;22.10;3.90;;;;;;5108663;27;35516;-76
2022/08/29 07:42:52;;;;;;;2.17;1.10;;;22.00;3.80;;;;;;5098479;27;34187;-76
2022/08/29 07:45:18;;;;;;;8.20;1.45;;;22.00;3.70;;;;;;5108250;27;34293;-77
2022/08/29 07:47:45;;;;;;;2.38;1.17;;;22.10;3.50;;;;;;5092029;27;34172;-79
2022/08/29 07:50:13;;;;;;;3.95;1.50;;;22.20;3.30;;;;;;5107927;27;36486;-76
2022/08/29 07:52:39;;;;;;;2.38;1.08;;;22.30;2.90;;;;;;5108850;27;34700;-76
2022/08/29 07:55:06;;;;;;;9.85;1.98;;;22.30;3.10;;;;;;5108392;27;34176;-76
2022/08/29 07:57:33;;;;;;;3.42;1.40;;;22.40;3.00;;;;;;5092785;27;34517;-76
2022/08/29 08:00:00;;;;;;;3.40;1.40;;;22.60;2.00;;;;;;5108246;27;36101;-78
2022/08/29 08:02:26;;;;;;;3.20;1.10;;;22.80;1.10;;;;;;5108913;27;34351;-76
2022/08/29 08:04:52;;;;;;;3.55;1.15;;;22.70;2.30;;;;;;5108350;27;34156;-76
2022/08/29 08:07:18;;;;;;;4.28;1.40;;;23.00;2.10;;;;;;5091115;27;34572;-76
2022/08/29 08:09:44;;;;;;;9.05;1.35;;;23.00;1.90;;;;;;5108428;27;35025;-76
2022/08/29 08:12:10;;;;;;;5.30;1.10;;;23.10;1.70;;;;;;5109059;27;34118;-76
2022/08/29 08:14:36;;;;;;;1.67;1.05;;;23.20;1.50;;;;;;5107389;27;34304;-76
2022/08/29 08:17:02;;;;;;;3.08;1.20;;;23.30;1.50;;;;;;5127846;27;34189;-76
2022/08/29 08:19:29;;;;;;;2.50;1.50;;;23.40;1.10;;;;;;5107731;27;36006;-76
2022/08/29 08:21:57;;;;;;;5.72;1.60;;;23.60;1.00;;;;;;5108534;27;34091;-76
2022/08/29 08:24:23;;;;;;;5.47;1.65;;;23.80;1.00;;;;;;5090874;27;34133;-76
2022/08/29 08:26:49;;;;;;;4.97;1.50;;;23.90;1.00;;;;;;5108509;27;34424;-75
2022/08/29 08:29:16;;;;;;;1.88;1.20;;;24.10;1.00;;;;;;5107950;27;36290;-75
2022/08/29 08:31:45;;;;;;;3.00;1.20;;;24.10;1.00;;;;;;5108809;27;34435;-76
2022/08/29 08:34:14;;;;;;;3.90;1.00;;;24.10;1.00;;;;;;5108781;27;34515;-76
2022/08/29 08:36:42;;;;;;;2.97;1.27;;;24.00;1.00;;;;;;5109558;27;34198;-75
2022/08/29 08:39:08;;;;;;;4.57;1.20;;;23.90;1.00;;;;;;5107531;27;36513;-75
2022/08/29 08:42:04;;;;;;;3.65;1.52;;;23.90;1.00;;;;;;5107962;27;34231;-76
2022/08/29 08:45:05;;;;;;;3.25;1.27;;;23.80;1.00;;;;;;5094168;27;34270;-76
2022/08/29 08:47:36;;;;;;;2.42;1.10;;;23.90;1.00;;;;;;5096124;27;34165;-76
2022/08/29 08:50:36;;;;;;;4.20;1.45;;;24.10;1.00;;;;;;5100488;28;36489;-76
2022/08/29 08:53:11;;;;;;;4.03;1.40;;;24.40;1.00;;;;;;5091337;27;34208;-75
2022/08/29 08:55:43;;;;;;;3.42;1.48;;;24.60;1.00;;;;;;5091462;27;34242;-76
2022/08/29 08:58:41;;;;;;;3.80;1.10;;;24.80;1.00;;;;;;5075121;27;34100;-78
2022/08/29 09:01:27;;;;;;;3.42;1.20;;;25.00;1.00;;;;;;5125835;27;34208;-76
2022/08/29 09:04:24;;;;;;;1.98;1.20;;;25.30;1.00;;;;;;5108111;27;34202;-78
2022/08/29 09:07:14;;;;;;;5.38;1.50;;;25.50;1.00;;;;;;5108271;27;34094;-78
2022/08/29 09:10:03;;;;;;;6.85;1.02;;;25.60;1.00;;;;;;5093546;27;34063;-76
2022/08/29 09:12:50;;;;;;;2.95;1.10;;;25.70;1.00;;;;;;5108225;27;35773;-76
2022/08/29 09:15:19;;;;;;;5.15;1.40;;;25.80;1.00;;;;;;5111749;27;34044;-77
2022/08/29 09:18:04;;;;;;;4.38;1.50;;;25.80;1.00;;;;;;5090962;27;34264;-74
2022/08/29 09:20:35;;;;;;;5.05;1.20;;;25.90;1.00;;;;;;5126259;27;34090;-76
2022/08/29 09:23:23;;;;;;;3.17;1.10;;;26.00;1.00;;;;;;5107296;27;35620;-75
2022/08/29 09:25:50;;;;;;;5.10;1.40;;;26.30;1.00;;;;;;5106748;27;34347;-77
2022/08/29 09:28:17;;;;;;;3.72;1.20;;;26.30;1.00;;;;;;5125604;27;34294;-75
2022/08/29 09:31:03;;;;;;;4.28;1.50;;;26.40;1.00;;;;;;5108092;27;34298;-74
2022/08/29 09:33:41;;;;;;;4.03;0.88;;;26.40;1.00;;;;;;5092400;27;35862;-74
2022/08/29 09:36:12;;;;;;;5.80;1.60;;;26.70;1.00;;;;;;5108012;27;34145;-74
2022/08/29 09:38:38;;;;;;;3.25;2.20;;;26.90;1.00;;;;;;5086503;28;34146;-75
2022/08/29 09:41:07;;;;;;;3.45;1.35;;;27.10;1.00;;;;;;5121408;27;34038;-76
2022/08/29 09:43:48;;;;;;;3.10;1.30;;;27.40;1.00;;;;;;5107291;27;34169;-75
2022/08/29 09:46:21;;;;;;;1.33;1.10;;;27.40;1.00;;;;;;5124539;27;34299;-74
2022/08/29 09:48:59;;;;;;;4.95;1.20;;;27.40;1.00;;;;;;5106702;27;34331;-75
2022/08/29 09:51:29;;;;;;;3.42;1.10;;;27.50;1.00;;;;;;5106835;27;34644;-76
2022/08/29 09:54:27;;;;;;;4.97;1.30;;;27.70;1.00;;;;;;5106658;27;36145;-74
2022/08/29 09:57:01;;;;;;;2.80;1.20;;;27.90;1.00;;;;;;5125103;27;34076;-74
2022/08/29 09:59:32;;;;;;;2.03;1.20;;;28.20;1.00;;;;;;5090765;27;34423;-76
2022/08/29 10:02:23;;;;;;;2.15;1.23;;;28.40;1.00;;;;;;5107275;27;34091;-77
2022/08/29 10:04:58;;;;;;;3.63;1.40;;;28.50;1.00;;;;;;5106642;27;36526;-76
2022/08/29 10:07:29;;;;;;;2.55;1.20;;;28.50;1.00;;;;;;5107425;27;34406;-75
2022/08/29 10:10:06;;;;;;;2.72;1.30;;;28.70;1.00;;;;;;5107251;27;34184;-75
2022/08/29 10:12:44;;;;;;;3.35;1.45;;;28.70;1.00;;;;;;5089496;27;34134;-75
2022/08/29 10:15:30;;;;;;;3.15;1.08;;;28.80;1.00;;;;;;5106468;27;35786;-77
2022/08/29 10:21:11;;;;;;;3.97;1.40;;;28.80;1.00;;;;;;5107972;27;34108;-76
2022/08/29 10:24:00;;;;;;;1.83;1.10;;;28.90;1.00;;;;;;5090193;27;34148;-74
2022/08/29 10:26:51;;;;;;;1.40;1.10;;;29.00;1.00;;;;;;5100472;27;35541;-75
2022/08/29 10:29:35;;;;;;;1.85;1.20;;;29.10;1.00;;;;;;5106269;27;34173;-76
2022/08/29 10:32:10;;;;;;;1.67;1.27;;;29.20;1.00;;;;;;5115966;27;34238;-75
2022/08/29 10:35:02;;;;;;;2.78;1.50;;;29.40;1.00;;;;;;5106027;27;34122;-75
2022/08/29 10:37:51;;;;;;;3.63;1.45;;;29.60;1.00;;;;;;5106435;27;35910;-77
2022/08/29 10:40:29;;;;;;;1.88;1.10;;;29.50;1.00;;;;;;5109794;27;34001;-76
2022/08/29 10:43:26;;;;;;;5.50;1.50;;;29.60;1.00;;;;;;5128847;27;34320;-75
2022/08/29 10:46:20;;;;;;;1.98;1.27;;;29.70;1.00;;;;;;5128656;27;34254;-74
2022/08/29 10:49:21;;;;;;;4.22;1.90;;;29.90;1.00;;;;;;5113338;27;34372;-75
2022/08/29 10:52:09;;;;;;;5.18;1.58;;;29.90;1.00;;;;;;5097871;27;34319;-75
2022/08/29 10:55:15;;;;;;;5.00;1.70;;;29.90;1.00;;;;;;5109729;27;34519;-74
2022/08/29 10:57:52;;;;;;;7.32;1.63;;;30.10;1.00;;;;;;5084464;27;34081;-76
2022/08/29 11:00:23;;;;;;;4.85;1.02;;;30.20;1.00;;;;;;5127768;27;34403;-75
2022/08/29 11:03:11;;;;;;;3.55;1.20;;;30.20;1.00;;;;;;5109448;27;34217;-76
2022/08/29 11:05:44;;;;;;;1.70;1.20;;;30.30;1.00;;;;;;5109591;27;34247;-77
2022/08/29 11:08:28;;;;;;;1.77;1.10;;;30.20;1.00;;;;;;5110826;27;34093;-74
2022/08/29 11:10:54;;;;;;;3.15;1.48;;;30.30;1.00;;;;;;5088923;28;36810;-75
2022/08/29 11:13:41;;;;;;;2.15;1.10;;;30.30;1.00;;;;;;5095901;27;34214;-76
2022/08/29 11:16:24;;;;;;;2.53;1.15;;;30.30;1.00;;;;;;5091064;27;34110;-76
2022/08/29 11:19:01;;;;;;;2.78;1.40;;;30.30;1.00;;;;;;5109705;27;34288;-75
2022/08/29 11:21:40;;;;;;;4.75;1.50;;;30.40;1.00;;;;;;5092210;27;35584;-76
2022/08/29 11:24:08;;;;;;;2.45;1.13;;;30.50;1.00;;;;;;5109578;27;34343;-76
2022/08/29 11:26:51;;;;;;;2.33;1.17;;;30.60;1.00;;;;;;5071753;28;34300;-76
2022/08/29 11:29:33;;;;;;;2.28;1.35;;;30.70;1.00;;;;;;5072931;27;34502;-75
2022/08/29 11:32:17;;;;;;;3.28;1.15;;;30.70;1.00;;;;;;5093438;27;35602;-77
2022/08/29 11:35:05;;;;;;;2.20;1.30;;;30.90;1.00;;;;;;5098013;27;34233;-75
2022/08/29 11:37:52;;;;;;;3.78;1.50;;;30.90;1.00;;;;;;5120421;27;34415;-76
2022/08/29 11:40:41;;;;;;;2.83;1.23;;;30.90;1.00;;;;;;5113332;27;34523;-75
2022/08/29 11:43:13;;;;;;;2.05;1.50;;;30.80;1.00;;;;;;5129898;27;35769;-75
2022/08/29 11:45:42;;;;;;;3.83;1.52;;;30.80;1.00;;;;;;5129615;27;34123;-74
2022/08/29 11:48:34;;;;;;;2.03;1.17;;;30.90;1.00;;;;;;5095763;27;34441;-77
2022/08/29 11:51:36;;;;;;;3.40;1.35;;;30.90;1.00;;;;;;5111643;27;34129;-75
2022/08/29 11:54:41;;;;;;;1.70;1.30;;;31.00;1.00;;;;;;5097110;27;35608;-78
2022/08/29 11:57:37;;;;;;;5.10;1.48;;;31.10;1.00;;;;;;5063418;28;34127;-75
2022/08/29 12:00:26;;;;;;;1.58;1.40;;;31.10;1.00;;;;;;5093291;28;34137;-75
2022/08/29 12:02:52;;;;;;;2.90;1.45;;;31.30;1.00;;;;;;5071569;28;34378;-75
2022/08/29 12:05:47;;;;;;;3.60;1.60;;;31.40;1.00;;;;;;5088413;28;34392;-76
2022/08/29 12:08:30;;;;;;;5.55;1.20;;;31.50;1.00;;;;;;5074844;28;34162;-75
2022/08/29 12:10:57;;;;;;;2.53;1.35;;;31.60;1.00;;;;;;5126154;27;34435;-76
2022/08/29 12:13:58;;;;;;;2.47;1.33;;;31.80;1.00;;;;;;5107977;27;34392;-76
2022/08/29 12:16:42;;;;;;;6.47;1.67;;;31.70;1.00;;;;;;5094527;27;35613;-76
2022/08/29 12:19:08;;;;;;;2.80;1.17;;;31.50;1.00;;;;;;5108712;27;34162;-75
2022/08/29 12:21:45;;;;;;;2.05;1.20;;;31.40;1.00;;;;;;5108234;27;34189;-75
2022/08/29 12:24:31;;;;;;;3.10;1.23;;;31.10;1.00;;;;;;5109642;27;34257;-76
2022/08/29 12:26:57;;;;;;;2.13;1.33;;;30.90;1.00;;;;;;5108932;27;36377;-76
2022/08/29 12:29:32;;;;;;;1.92;1.50;;;30.80;1.00;;;;;;5137678;27;34354;-75
2022/08/29 12:32:21;;;;;;;3.40;1.20;;;30.90;1.00;;;;;;5146203;27;34143;-75
2022/08/29 12:35:11;;;;;;;4.22;1.40;;;31.10;1.00;;;;;;5146539;27;34397;-75
2022/08/29 12:38:00;;;;;;;2.65;1.23;;;31.00;1.00;;;;;;5146912;27;34340;-76
2022/08/29 12:40:40;;;;;;;4.43;1.58;;;31.10;1.00;;;;;;5146150;27;34223;-76
2022/08/29 12:43:36;;;;;;;2.92;1.45;;;31.00;1.00;;;;;;5146498;27;34404;-75
2022/08/29 12:46:10;;;;;;;1.45;1.30;;;31.10;1.00;;;;;;5116217;27;34208;-76
2022/08/29 12:48:43;;;;;;;1.67;1.27;;;31.30;1.00;;;;;;5129817;27;35583;-75
2022/08/29 12:51:09;;;;;;;3.30;1.50;;;31.30;1.00;;;;;;5147624;27;34261;-77
2022/08/29 12:53:36;;;;;;;4.32;2.10;;;31.30;1.00;;;;;;5128455;27;34255;-76
2022/08/29 12:56:17;;;;;;;1.67;1.38;;;31.40;1.00;;;;;;5147097;27;34420;-75
2022/08/29 12:58:53;;;;;;;2.63;1.60;;;31.50;1.00;;;;;;5111378;27;35774;-76
2022/08/29 13:01:32;;;;;;;5.45;1.70;;;31.40;1.00;;;;;;5127589;27;34073;-75
2022/08/29 13:04:16;;;;;;;2.13;1.45;;;31.40;1.00;;;;;;5129307;27;34140;-75
2022/08/29 13:07:00;;;;;;;3.35;1.30;;;31.40;1.00;;;;;;5131434;27;34221;-77
2022/08/29 13:09:32;;;;;;;1.90;1.60;;;31.50;1.00;;;;;;5145987;27;35722;-76
2022/08/29 13:12:07;;;;;;;3.13;1.58;;;31.50;1.00;;;;;;5147188;27;34169;-75
2022/08/29 13:14:44;;;;;;;3.45;1.48;;;31.60;1.00;;;;;;5145151;27;34227;-76
2022/08/29 13:17:14;;;;;;;3.05;1.60;;;31.60;1.00;;;;;;5146178;27;34349;-75
2022/08/29 13:19:40;;;;;;;4.60;1.55;;;31.60;1.00;;;;;;5127956;27;35859;-76
2022/08/29 13:22:11;;;;;;;3.38;1.83;;;31.70;1.00;;;;;;5128361;27;34193;-76